createdAt,value
2018-10-04T00:02:01.436Z,14.30
2018-10-04T00:04:30.087Z,14.20
2018-10-04T00:06:58.668Z,14.00
2018-10-04T00:09:27.405Z,14.20
2018-10-04T00:11:57.331Z,14.00
2018-10-04T00:14:25.989Z,14.00
2018-10-04T00:16:54.734Z,14.10
2018-10-04T00:19:23.484Z,14.10
2018-10-04T00:21:52.199Z,13.80
2018-10-04T00:24:20.954Z,14.10
2018-10-04T00:26:49.649Z,13.80
2018-10-04T00:29:18.544Z,13.70
2018-10-04T00:31:47.654Z,14.10
2018-10-04T00:34:17.639Z,14.10
2018-10-04T00:36:46.356Z,13.90
2018-10-04T00:39:14.968Z,13.70
2018-10-04T00:41:43.717Z,13.90
2018-10-04T00:44:12.439Z,13.80
2018-10-04T00:46:40.973Z,13.90
2018-10-04T00:49:09.676Z,13.90
2018-10-04T00:51:38.286Z,14.00
2018-10-04T00:54:07.005Z,13.90
2018-10-04T00:56:37.214Z,14.10
2018-10-04T00:59:06.034Z,13.90
2018-10-04T01:01:34.885Z,14.10
2018-10-04T01:04:03.650Z,14.10
2018-10-04T01:06:32.433Z,14.20
2018-10-04T01:09:01.375Z,13.90
2018-10-04T01:11:29.984Z,13.80
2018-10-04T01:13:58.580Z,13.90
2018-10-04T01:16:27.334Z,13.90
2018-10-04T01:18:57.459Z,14.00
2018-10-04T01:21:26.250Z,13.80
2018-10-04T01:23:55.410Z,13.70
2018-10-04T01:26:24.140Z,13.80
2018-10-04T01:28:52.909Z,13.70
2018-10-04T01:31:22.509Z,13.90
2018-10-04T01:33:51.137Z,14.10
2018-10-04T01:36:20.096Z,13.80
2018-10-04T01:38:48.744Z,13.80
2018-10-04T01:41:18.314Z,13.80
2018-10-04T01:43:47.115Z,14.10
2018-10-04T01:46:15.861Z,14.10
2018-10-04T01:48:44.511Z,14.10
2018-10-04T01:51:13.169Z,13.90
2018-10-04T01:53:41.795Z,13.90
2018-10-04T01:56:10.487Z,13.90
2018-10-04T01:58:39.248Z,13.90
2018-10-04T02:01:07.990Z,13.90
2018-10-04T02:03:36.791Z,14.00
2018-10-04T02:06:05.508Z,13.90
2018-10-04T02:08:34.677Z,14.10
2018-10-04T02:11:03.446Z,14.20
2018-10-04T02:13:32.304Z,14.10
2018-10-04T02:16:01.137Z,13.80
2018-10-04T02:18:29.743Z,14.10
2018-10-04T02:20:58.470Z,13.90
2018-10-04T02:23:27.227Z,14.10
2018-10-04T02:25:56.325Z,14.00
2018-10-04T02:28:25.006Z,13.80
2018-10-04T02:30:53.729Z,13.80
2018-10-04T02:33:22.557Z,13.70
2018-10-04T02:35:51.396Z,13.70
2018-10-04T02:38:20.053Z,13.80
2018-10-04T02:40:48.839Z,13.70
2018-10-04T02:43:17.650Z,13.30
2018-10-04T02:45:46.626Z,13.50
2018-10-04T02:48:15.699Z,13.60
2018-10-04T02:50:44.573Z,13.70
2018-10-04T02:53:13.423Z,13.60
2018-10-04T02:55:47.369Z,13.50
2018-10-04T02:58:16.047Z,13.60
2018-10-04T03:00:44.714Z,13.60
2018-10-04T03:03:13.387Z,13.70
2018-10-04T03:05:42.065Z,13.70
2018-10-04T03:08:11.612Z,13.70
2018-10-04T03:10:40.495Z,13.40
2018-10-04T03:13:10.351Z,13.60
2018-10-04T03:15:39.097Z,13.50
2018-10-04T03:18:07.757Z,13.50
2018-10-04T03:20:36.646Z,13.50
2018-10-04T03:23:05.578Z,13.50
2018-10-04T03:25:34.296Z,13.60
2018-10-04T03:28:03.129Z,13.40
2018-10-04T03:30:32.812Z,13.60
2018-10-04T03:33:01.622Z,13.60
2018-10-04T03:35:30.278Z,13.50
2018-10-04T03:37:58.972Z,13.70
2018-10-04T03:40:27.661Z,13.60
2018-10-04T03:42:56.435Z,13.80
2018-10-04T03:45:25.387Z,13.60
2018-10-04T03:47:54.084Z,13.70
2018-10-04T03:50:22.832Z,13.50
2018-10-04T03:52:52.193Z,13.60
2018-10-04T03:55:21.004Z,13.30
2018-10-04T03:57:49.727Z,13.30
2018-10-04T04:00:18.542Z,13.10
2018-10-04T04:02:47.193Z,13.40
2018-10-04T04:05:16.170Z,13.30
2018-10-04T04:07:44.953Z,13.20
2018-10-04T04:10:13.731Z,13.30
2018-10-04T04:12:42.478Z,13.20
2018-10-04T04:15:11.385Z,13.40
2018-10-04T04:17:40.170Z,13.20
2018-10-04T04:20:08.971Z,13.20
2018-10-04T04:22:37.670Z,13.20
2018-10-04T04:25:06.516Z,13.10
2018-10-04T04:27:35.252Z,13.00
2018-10-04T04:30:04.199Z,13.00
2018-10-04T04:32:33.048Z,13.30
2018-10-04T04:35:02.058Z,13.10
2018-10-04T04:37:32.385Z,13.00
2018-10-04T04:40:01.397Z,13.10
2018-10-04T04:42:30.876Z,13.00
2018-10-04T04:44:59.719Z,13.00
2018-10-04T04:47:28.816Z,12.90
2018-10-04T04:49:57.676Z,12.80
2018-10-04T04:52:26.580Z,12.90
2018-10-04T04:55:33.264Z,12.80
2018-10-04T04:58:03.498Z,12.70
2018-10-04T05:00:33.248Z,12.80
2018-10-04T05:03:02.035Z,12.90
2018-10-04T05:05:31.249Z,12.60
2018-10-04T05:08:01.108Z,12.90
2018-10-04T05:10:30.545Z,12.60
2018-10-04T05:13:00.853Z,12.70
2018-10-04T05:21:14.427Z,12.70
2018-10-04T05:23:43.069Z,12.70
2018-10-04T05:26:11.805Z,12.70
2018-10-04T05:28:40.843Z,12.40
2018-10-04T05:31:09.731Z,12.60
2018-10-04T05:33:39.849Z,12.50
2018-10-04T05:36:09.256Z,12.70
2018-10-04T05:38:50.341Z,12.40
2018-10-04T05:41:19.091Z,12.50
2018-10-04T05:43:48.073Z,12.40
2018-10-04T05:46:16.913Z,12.60
2018-10-04T05:48:45.895Z,12.40
2018-10-04T05:51:14.995Z,12.60
2018-10-04T05:53:43.875Z,12.50
2018-10-04T05:56:12.744Z,12.40
2018-10-04T05:58:41.530Z,12.50
2018-10-04T06:01:10.543Z,12.40
2018-10-04T06:03:39.323Z,12.30
2018-10-04T06:06:08.125Z,12.30
2018-10-04T06:08:36.933Z,12.30
2018-10-04T06:11:05.671Z,12.40
2018-10-04T06:13:34.639Z,12.40
2018-10-04T06:16:03.607Z,12.50
2018-10-04T06:18:32.437Z,12.40
2018-10-04T06:21:01.223Z,12.40
2018-10-04T06:23:44.034Z,12.40
2018-10-04T06:26:12.682Z,12.30
2018-10-04T06:28:41.502Z,12.10
2018-10-04T06:31:10.199Z,12.30
2018-10-04T06:33:39.035Z,12.60
2018-10-04T06:36:07.859Z,12.50
2018-10-04T06:38:36.717Z,12.40
2018-10-04T06:41:05.589Z,12.60
2018-10-04T06:43:34.511Z,12.60
2018-10-04T06:46:03.579Z,12.60
2018-10-04T06:48:32.330Z,12.90
2018-10-04T06:51:01.059Z,13.00
2018-10-04T06:53:29.763Z,12.50
2018-10-04T06:55:58.492Z,12.60
2018-10-04T06:58:27.273Z,12.40
2018-10-04T07:00:56.137Z,12.50
2018-10-04T07:03:24.776Z,12.40
2018-10-04T07:05:53.385Z,12.50
2018-10-04T07:08:22.321Z,12.50
2018-10-04T07:10:51.021Z,12.70
2018-10-04T07:13:19.706Z,12.70
2018-10-04T07:15:48.456Z,12.70
2018-10-04T07:18:17.119Z,12.70
2018-10-04T07:20:45.795Z,13.10
2018-10-04T07:23:14.474Z,12.80
2018-10-04T07:25:43.239Z,13.00
2018-10-04T07:28:11.963Z,13.00
2018-10-04T07:30:42.455Z,12.80
2018-10-04T07:33:11.065Z,12.80
2018-10-04T07:35:39.746Z,12.70
2018-10-04T07:38:08.451Z,13.00
2018-10-04T07:40:37.264Z,12.70
2018-10-04T07:43:05.932Z,12.60
2018-10-04T07:45:34.521Z,12.60
2018-10-04T07:48:03.133Z,12.70
2018-10-04T07:50:32.291Z,12.70
2018-10-04T07:53:01.204Z,12.80
2018-10-04T07:55:29.942Z,12.80
2018-10-04T07:57:58.584Z,12.80
2018-10-04T08:00:27.165Z,13.10
2018-10-04T08:02:55.745Z,13.50
2018-10-04T08:05:24.394Z,13.60
2018-10-04T08:07:53.103Z,13.80
2018-10-04T08:10:22.029Z,13.60
2018-10-04T08:12:50.611Z,14.00
2018-10-04T08:15:23.148Z,14.00
2018-10-04T08:17:51.876Z,14.20
2018-10-04T08:20:20.514Z,14.30
2018-10-04T08:22:49.116Z,14.40
2018-10-04T08:25:17.901Z,14.30
2018-10-04T08:27:46.734Z,14.40
2018-10-04T08:30:15.358Z,14.60
2018-10-04T08:32:43.978Z,14.60
2018-10-04T08:35:12.902Z,14.90
2018-10-04T08:37:43.500Z,14.80
2018-10-04T08:40:12.234Z,14.90
2018-10-04T08:42:40.836Z,14.80
2018-10-04T08:45:09.539Z,15.20
2018-10-04T08:47:38.184Z,15.30
2018-10-04T08:50:06.910Z,15.20
2018-10-04T08:52:40.781Z,15.40
2018-10-04T08:55:14.811Z,15.30
2018-10-04T08:57:43.593Z,15.30
2018-10-04T09:00:12.317Z,15.40
2018-10-04T09:02:41.080Z,15.50
2018-10-04T09:05:09.852Z,15.40
2018-10-04T09:07:38.581Z,15.30
2018-10-04T09:10:07.255Z,15.50
2018-10-04T09:12:35.940Z,15.70
2018-10-04T09:15:04.581Z,15.80
2018-10-04T09:17:33.229Z,15.80
2018-10-04T09:20:02.354Z,15.80
2018-10-04T09:22:33.354Z,15.90
2018-10-04T09:25:02.089Z,15.90
2018-10-04T09:27:30.844Z,15.90
2018-10-04T09:30:04.719Z,16.10
2018-10-04T09:32:33.395Z,16.00
2018-10-04T09:35:02.184Z,16.20
2018-10-04T09:37:30.923Z,16.10
2018-10-04T09:39:59.828Z,16.10
2018-10-04T09:42:28.917Z,16.00
2018-10-04T09:44:57.724Z,16.00
2018-10-04T09:47:30.522Z,16.10
2018-10-04T09:49:59.830Z,16.40
2018-10-04T09:52:28.554Z,16.40
2018-10-04T09:55:02.555Z,16.40
2018-10-04T09:57:37.575Z,16.40
2018-10-04T10:00:13.591Z,16.60
2018-10-04T10:02:47.504Z,16.70
2018-10-04T10:05:16.187Z,16.90
2018-10-04T10:07:45.479Z,17.00
2018-10-04T10:10:14.065Z,17.20
2018-10-04T10:12:43.882Z,17.10
2018-10-04T10:15:12.933Z,17.20
2018-10-04T10:17:41.968Z,17.20
2018-10-04T10:20:18.173Z,17.10
2018-10-04T10:22:46.812Z,17.00
2018-10-04T10:25:15.429Z,17.00
2018-10-04T10:27:44.337Z,16.90
2018-10-04T10:30:13.045Z,16.80
2018-10-04T10:32:41.769Z,16.80
2018-10-04T10:35:10.584Z,16.80
2018-10-04T10:37:39.461Z,16.90
2018-10-04T10:40:08.460Z,17.00
2018-10-04T10:42:38.984Z,17.20
2018-10-04T10:45:07.805Z,17.40
2018-10-04T10:47:36.648Z,17.50
2018-10-04T10:50:05.582Z,17.50
2018-10-04T10:52:34.307Z,17.30
2018-10-04T10:55:03.265Z,17.40
2018-10-04T10:57:33.863Z,17.60
2018-10-04T11:00:02.757Z,17.70
2018-10-04T11:02:32.257Z,17.80
2018-10-04T11:05:01.068Z,17.90
2018-10-04T11:07:29.695Z,18.00
2018-10-04T11:09:58.465Z,18.00
2018-10-04T11:12:27.318Z,17.90
2018-10-04T11:14:56.085Z,17.80
2018-10-04T11:17:24.881Z,17.80
2018-10-04T11:19:53.635Z,17.90
2018-10-04T11:22:22.403Z,17.70
2018-10-04T11:24:58.034Z,17.60
2018-10-04T11:27:26.804Z,17.60
2018-10-04T11:29:55.622Z,17.50
2018-10-04T11:32:24.382Z,17.60
2018-10-04T11:34:53.190Z,17.60
2018-10-04T11:37:21.954Z,17.80
2018-10-04T11:39:51.444Z,17.90
2018-10-04T11:42:20.846Z,18.00
2018-10-04T11:44:53.918Z,17.90
2018-10-04T11:47:27.028Z,17.90
2018-10-04T11:49:56.098Z,17.80
2018-10-04T11:52:24.840Z,17.80
2018-10-04T11:54:53.868Z,17.80
2018-10-04T11:57:22.611Z,17.90
2018-10-04T11:59:51.362Z,17.90
2018-10-04T12:02:21.000Z,17.80
2018-10-04T12:04:49.686Z,17.70
2018-10-04T12:07:18.893Z,17.80
2018-10-04T12:09:47.704Z,17.70
2018-10-04T12:12:16.368Z,17.90
2018-10-04T12:14:45.018Z,17.90
2018-10-04T12:17:13.838Z,17.90
2018-10-04T12:19:42.678Z,17.90
2018-10-04T12:22:11.582Z,18.00
2018-10-04T12:24:40.387Z,18.00
2018-10-04T12:27:09.186Z,18.10
2018-10-04T12:29:39.078Z,18.00
2018-10-04T12:32:08.005Z,18.00
2018-10-04T12:34:36.831Z,18.10
2018-10-04T12:37:05.790Z,18.10
2018-10-04T12:39:34.663Z,18.10
2018-10-04T12:42:03.604Z,17.90
2018-10-04T12:44:32.466Z,17.80
2018-10-04T12:47:01.329Z,18.00
2018-10-04T12:49:30.174Z,18.00
2018-10-04T12:51:59.859Z,18.00
2018-10-04T12:54:28.670Z,18.30
2018-10-04T12:56:57.561Z,18.40
2018-10-04T12:59:26.347Z,18.40
2018-10-04T13:01:55.109Z,18.50
2018-10-04T13:04:23.868Z,18.60
2018-10-04T13:06:52.778Z,18.50
2018-10-04T13:09:21.511Z,18.50
2018-10-04T13:11:50.377Z,18.50
2018-10-04T13:14:21.146Z,18.20
2018-10-04T13:16:49.969Z,18.30
2018-10-04T13:19:18.613Z,18.40
2018-10-04T13:21:47.517Z,18.50
2018-10-04T13:24:16.304Z,18.80
2018-10-04T13:26:45.086Z,18.80
2018-10-04T13:29:13.971Z,18.70
2018-10-04T13:31:42.726Z,18.60
2018-10-04T13:34:11.442Z,18.70
2018-10-04T13:36:56.434Z,18.90
2018-10-04T13:39:25.239Z,18.90
2018-10-04T13:41:54.066Z,18.90
2018-10-04T13:44:22.832Z,18.80
2018-10-04T13:46:51.639Z,18.80
2018-10-04T13:49:20.454Z,18.90
2018-10-04T13:51:49.304Z,18.70
2018-10-04T13:54:18.228Z,18.80
2018-10-04T13:56:46.963Z,18.90
2018-10-04T13:59:17.505Z,19.00
2018-10-04T14:01:46.107Z,19.10
2018-10-04T14:04:14.789Z,19.20
2018-10-04T14:06:43.559Z,19.00
2018-10-04T14:09:12.459Z,18.90
2018-10-04T14:11:41.196Z,18.90
2018-10-04T14:14:09.979Z,18.90
2018-10-04T14:16:38.764Z,19.00
2018-10-04T14:19:07.599Z,18.80
2018-10-04T14:21:36.664Z,18.60
2018-10-04T14:24:06.364Z,18.60
2018-10-04T14:26:35.217Z,18.70
2018-10-04T14:29:04.100Z,18.70
2018-10-04T14:31:32.890Z,18.60
2018-10-04T14:34:01.772Z,18.70
2018-10-04T14:36:30.578Z,18.80
2018-10-04T14:38:59.368Z,18.70
2018-10-04T14:41:28.116Z,18.90
2018-10-04T14:44:04.287Z,19.10
2018-10-04T14:46:33.144Z,19.00
2018-10-04T14:49:01.943Z,18.80
2018-10-04T14:51:30.789Z,18.80
2018-10-04T14:53:59.635Z,18.70
2018-10-04T14:56:28.488Z,18.80
2018-10-04T14:58:57.164Z,19.00
2018-10-04T15:01:26.021Z,19.00
2018-10-04T15:03:54.801Z,19.20
2018-10-04T15:06:23.549Z,19.00
2018-10-04T15:08:52.237Z,19.00
2018-10-04T15:11:21.084Z,19.00
2018-10-04T15:13:49.858Z,18.90
2018-10-04T15:16:18.637Z,18.70
2018-10-04T15:18:47.492Z,18.60
2018-10-04T15:21:16.293Z,18.40
2018-10-04T15:23:45.000Z,18.50
2018-10-04T15:26:19.805Z,18.50
2018-10-04T15:28:48.518Z,18.50
2018-10-04T15:31:17.284Z,18.50
2018-10-04T15:33:46.013Z,18.30
2018-10-04T15:36:14.828Z,18.30
2018-10-04T15:38:43.658Z,18.40
2018-10-04T15:41:12.442Z,18.40
2018-10-04T15:43:41.249Z,18.30
2018-10-04T15:46:10.051Z,18.40
2018-10-04T15:48:40.113Z,18.20
2018-10-04T15:51:08.943Z,18.20
2018-10-04T15:53:37.834Z,18.20
2018-10-04T15:56:06.658Z,18.30
2018-10-04T15:58:35.485Z,18.40
2018-10-04T16:01:04.352Z,18.30
2018-10-04T16:03:33.202Z,18.30
2018-10-04T16:06:01.918Z,18.20
2018-10-04T16:08:30.681Z,18.10
2018-10-04T16:11:00.692Z,18.10
2018-10-04T16:13:29.531Z,18.10
2018-10-04T16:15:58.476Z,18.00
2018-10-04T16:18:27.245Z,18.10
2018-10-04T16:20:55.968Z,18.10
2018-10-04T16:23:24.874Z,18.00
2018-10-04T16:25:53.812Z,17.90
2018-10-04T16:28:22.566Z,17.80
2018-10-04T16:30:51.369Z,17.80
2018-10-04T16:33:21.081Z,17.70
2018-10-04T16:35:49.852Z,17.60
2018-10-04T16:38:18.692Z,17.60
2018-10-04T16:40:47.512Z,17.50
2018-10-04T16:43:16.261Z,17.40
2018-10-04T16:45:45.036Z,17.40
2018-10-04T16:48:13.863Z,17.30
2018-10-04T16:50:42.665Z,17.30
2018-10-04T16:53:11.563Z,17.20
2018-10-04T16:55:42.356Z,17.10
2018-10-04T16:58:11.249Z,17.00
2018-10-04T17:00:39.974Z,17.00
2018-10-04T17:03:08.784Z,16.90
2018-10-04T17:05:37.574Z,16.80
2018-10-04T17:08:06.392Z,16.80
2018-10-04T17:10:35.199Z,16.70
2018-10-04T17:13:03.997Z,16.90
2018-10-04T17:15:32.731Z,16.60
2018-10-04T17:18:08.293Z,16.60
2018-10-04T17:20:37.114Z,16.50
2018-10-04T17:23:05.992Z,16.40
2018-10-04T17:25:34.807Z,16.30
2018-10-04T17:28:03.577Z,16.20
2018-10-04T17:30:32.337Z,16.20
2018-10-04T17:33:01.145Z,16.10
2018-10-04T17:35:29.949Z,16.10
2018-10-04T17:37:58.718Z,16.00
2018-10-04T17:40:27.542Z,15.90
2018-10-04T17:42:56.379Z,15.90
2018-10-04T17:45:25.147Z,15.80
2018-10-04T17:47:54.020Z,15.50
2018-10-04T17:50:22.655Z,15.70
2018-10-04T17:52:51.513Z,15.60
2018-10-04T17:55:20.234Z,15.60
2018-10-04T17:57:49.025Z,15.50
2018-10-04T18:00:17.799Z,15.40
2018-10-04T18:02:46.901Z,15.40
2018-10-04T18:05:15.671Z,15.40
2018-10-04T18:07:44.312Z,15.40
2018-10-04T18:10:12.991Z,15.30
2018-10-04T18:12:41.696Z,15.30
2018-10-04T18:15:10.553Z,15.20
2018-10-04T18:17:39.683Z,15.10
2018-10-04T18:20:08.450Z,15.10
2018-10-04T18:22:37.332Z,15.10
2018-10-04T18:25:07.983Z,15.00
2018-10-04T18:27:36.764Z,14.90
2018-10-04T18:30:05.879Z,15.10
2018-10-04T18:32:35.727Z,14.90
2018-10-04T18:35:04.456Z,14.90
2018-10-04T18:37:34.196Z,14.70
2018-10-04T18:40:02.921Z,14.90
2018-10-04T18:42:31.677Z,14.70
2018-10-04T18:45:00.410Z,14.50
2018-10-04T18:47:30.085Z,14.60
2018-10-04T18:49:58.873Z,14.50
2018-10-04T18:52:27.672Z,14.60
2018-10-04T18:54:56.452Z,14.40
2018-10-04T18:57:25.308Z,14.40
2018-10-04T18:59:54.126Z,14.50
2018-10-04T19:02:22.865Z,14.50
2018-10-04T19:04:51.638Z,14.50
2018-10-04T19:07:20.443Z,14.50
2018-10-04T19:09:49.178Z,14.50
2018-10-04T19:12:17.895Z,14.60
2018-10-04T19:14:46.704Z,14.60
2018-10-04T19:17:15.389Z,14.40
2018-10-04T19:19:44.108Z,14.20
2018-10-04T19:22:12.757Z,14.20
2018-10-04T19:24:41.549Z,13.90
2018-10-04T19:27:10.667Z,14.10
2018-10-04T19:29:39.355Z,14.70
2018-10-04T19:32:07.994Z,14.40
2018-10-04T19:34:36.807Z,14.50
2018-10-04T19:37:05.571Z,14.20
2018-10-04T19:39:34.335Z,14.00
2018-10-04T19:42:03.652Z,13.90
2018-10-04T19:44:32.403Z,13.90
2018-10-04T19:47:01.147Z,14.10
2018-10-04T19:49:30.036Z,14.20
2018-10-04T19:51:58.726Z,14.20
2018-10-04T19:54:27.459Z,13.90
2018-10-04T19:56:56.208Z,13.80
2018-10-04T19:59:24.890Z,13.90
2018-10-04T20:01:53.726Z,14.10
2018-10-04T20:04:22.427Z,14.00
2018-10-04T20:06:51.134Z,13.80
2018-10-04T20:09:19.912Z,13.80
2018-10-04T20:11:51.727Z,13.70
2018-10-04T20:14:20.461Z,13.70
2018-10-04T20:16:49.288Z,13.80
2018-10-04T20:19:18.039Z,13.80
2018-10-04T20:21:47.474Z,13.60
2018-10-04T20:24:16.667Z,13.70
2018-10-04T20:26:45.428Z,13.60
2018-10-04T20:29:14.150Z,13.70
2018-10-04T20:31:43.002Z,13.80
2018-10-04T20:34:17.363Z,13.80
2018-10-04T20:36:46.112Z,13.50
2018-10-04T20:39:14.832Z,13.70
2018-10-04T20:41:43.635Z,13.90
2018-10-04T20:44:12.372Z,13.70
2018-10-04T20:46:41.133Z,13.70
2018-10-04T20:49:09.868Z,13.70
2018-10-04T20:51:38.579Z,13.50
2018-10-04T20:54:07.382Z,13.40
2018-10-04T20:56:37.715Z,13.40
2018-10-04T20:59:06.622Z,13.50
2018-10-04T21:01:35.311Z,13.30
2018-10-04T21:04:04.002Z,13.50
2018-10-04T21:06:32.761Z,13.40
2018-10-04T21:09:01.529Z,13.30
2018-10-04T21:11:30.211Z,13.30
2018-10-04T21:13:58.735Z,13.20
2018-10-04T21:16:27.382Z,13.30
2018-10-04T21:18:56.157Z,13.10
2018-10-04T21:21:24.901Z,12.80
2018-10-04T21:23:53.625Z,12.70
2018-10-04T21:26:22.419Z,12.80
2018-10-04T21:28:51.140Z,12.70
2018-10-04T21:31:19.879Z,12.60
2018-10-04T21:33:48.602Z,12.70
2018-10-04T21:36:17.525Z,12.80
2018-10-04T21:38:46.227Z,12.80
2018-10-04T21:41:14.931Z,12.80
2018-10-04T21:43:43.719Z,12.80
2018-10-04T21:46:12.417Z,12.80
2018-10-04T21:48:41.165Z,12.80
2018-10-04T21:51:09.974Z,12.80
2018-10-04T21:53:38.840Z,12.70
2018-10-04T21:56:07.685Z,13.00
2018-10-04T21:58:36.668Z,13.10
2018-10-04T22:01:06.031Z,12.80
2018-10-04T22:03:40.436Z,12.80
2018-10-04T22:06:09.224Z,13.00
2018-10-04T22:08:38.053Z,12.60
2018-10-04T22:11:07.336Z,12.50
2018-10-04T22:13:36.569Z,12.70
2018-10-04T22:16:05.399Z,12.40
2018-10-04T22:18:34.298Z,12.50
2018-10-04T22:21:03.365Z,12.60
2018-10-04T22:23:34.168Z,12.60
2018-10-04T22:26:03.262Z,12.60
2018-10-04T22:28:33.036Z,12.60
2018-10-04T22:31:02.191Z,12.50
2018-10-04T22:33:31.124Z,12.50
2018-10-04T22:36:00.064Z,12.40
2018-10-04T22:38:29.064Z,12.40
2018-10-04T22:40:58.101Z,12.30
2018-10-04T22:43:27.055Z,12.30
2018-10-04T22:45:56.965Z,12.70
2018-10-04T22:48:26.329Z,12.40
2018-10-04T22:50:55.395Z,12.30
2018-10-04T22:53:24.629Z,12.30
2018-10-04T22:55:53.555Z,12.10
2018-10-04T22:58:22.681Z,12.10
2018-10-04T23:00:51.673Z,12.10
2018-10-04T23:03:20.927Z,12.20
2018-10-04T23:05:50.032Z,12.20
2018-10-04T23:08:19.861Z,12.30
2018-10-04T23:10:50.272Z,12.10
2018-10-04T23:13:19.293Z,12.30
2018-10-04T23:15:48.232Z,12.40
2018-10-04T23:18:17.220Z,12.50
2018-10-04T23:20:45.970Z,12.80
2018-10-04T23:23:14.918Z,12.70
2018-10-04T23:25:43.767Z,12.70
2018-10-04T23:28:14.190Z,12.70
2018-10-04T23:30:43.019Z,12.90
2018-10-04T23:33:11.817Z,12.70
2018-10-04T23:35:40.775Z,12.70
2018-10-04T23:38:09.539Z,12.60
2018-10-04T23:40:38.499Z,12.70
2018-10-04T23:43:07.218Z,12.70
2018-10-04T23:45:36.119Z,12.60
2018-10-04T23:48:05.021Z,12.60
2018-10-04T23:50:34.044Z,12.40
2018-10-04T23:53:02.949Z,12.70
2018-10-04T23:55:31.814Z,12.50
2018-10-04T23:58:01.275Z,12.50
